createdAt,value
2017-09-05T00:00:49.524Z,101348.77
2017-09-05T00:05:51.929Z,101341.95
2017-09-05T00:16:34.876Z,101344.16
2017-09-05T00:21:37.205Z,101331.89
2017-09-05T00:26:39.494Z,101340.13
2017-09-05T00:31:41.847Z,101343.48
2017-09-05T00:36:44.099Z,101340.05
2017-09-05T00:41:46.367Z,101342.42
2017-09-05T00:46:48.570Z,101334.87
2017-09-05T00:51:50.696Z,101335.05
2017-09-05T00:56:52.757Z,101325.62
2017-09-05T01:01:54.761Z,101328.09
2017-09-05T01:06:56.792Z,101330.23
2017-09-05T01:11:58.758Z,101330.00
2017-09-05T01:17:00.723Z,101347.85
2017-09-05T01:22:02.763Z,101341.81
2017-09-05T01:27:04.688Z,101340.52
2017-09-05T01:32:06.630Z,101333.13
2017-09-05T01:37:08.612Z,101343.88
2017-09-05T01:42:10.561Z,101348.64
2017-09-05T01:47:12.531Z,101353.84
2017-09-05T01:52:14.440Z,101352.91
2017-09-05T01:57:16.368Z,101351.66
2017-09-05T02:02:18.331Z,101347.70
2017-09-05T02:07:20.300Z,101355.55
2017-09-05T02:12:22.304Z,101348.85
2017-09-05T02:17:24.241Z,101350.32
2017-09-05T02:22:26.221Z,101350.34
2017-09-05T02:27:28.190Z,101338.45
2017-09-05T02:32:30.151Z,101330.47
2017-09-05T02:37:32.074Z,101334.63
2017-09-05T02:42:33.995Z,101339.24
2017-09-05T02:47:39.033Z,101342.91
2017-09-05T02:52:43.954Z,101345.98
2017-09-05T02:57:50.235Z,101335.01
2017-09-05T03:02:56.606Z,101333.64
2017-09-05T03:08:05.067Z,101335.76
2017-09-05T03:13:10.396Z,101329.23
2017-09-05T03:18:15.507Z,101328.42
2017-09-05T03:23:22.474Z,101330.25
2017-09-05T03:28:32.338Z,101330.84
2017-09-05T03:33:38.475Z,101333.91
2017-09-05T03:38:45.895Z,101328.63
2017-09-05T03:43:53.875Z,101327.66
2017-09-05T03:48:59.919Z,101318.02
2017-09-05T03:54:03.258Z,101326.53
2017-09-05T03:59:12.210Z,101333.68
2017-09-05T04:04:20.102Z,101321.39
2017-09-05T04:09:26.238Z,101328.03
2017-09-05T04:14:30.961Z,101330.03
2017-09-05T04:19:36.257Z,101329.84
2017-09-05T04:24:38.204Z,101341.40
2017-09-05T04:29:40.169Z,101349.38
2017-09-05T04:34:43.423Z,101352.70
2017-09-05T04:39:51.577Z,101362.05
2017-09-05T04:44:57.591Z,101361.80
2017-09-05T04:50:01.310Z,101361.19
2017-09-05T04:55:07.642Z,101360.05
2017-09-05T05:00:12.541Z,101369.32
2017-09-05T05:05:20.240Z,101372.46
2017-09-05T05:10:24.077Z,101374.38
2017-09-05T05:15:27.469Z,101376.10
2017-09-05T05:20:29.441Z,101371.12
2017-09-05T05:25:36.542Z,101374.88
2017-09-05T05:30:40.936Z,101374.38
2017-09-05T05:35:47.779Z,101373.14
2017-09-05T05:40:50.195Z,101370.56
2017-09-05T05:45:52.669Z,101357.73
2017-09-05T05:50:56.289Z,101359.11
2017-09-05T05:56:00.823Z,101354.94
2017-09-05T06:01:04.681Z,101344.04
2017-09-05T06:06:13.307Z,101344.80
2017-09-05T06:11:16.276Z,101346.58
2017-09-05T06:16:22.208Z,101343.37
2017-09-05T06:21:25.395Z,101346.85
2017-09-05T06:26:27.544Z,101353.20
2017-09-05T06:31:29.533Z,101350.03
2017-09-05T06:36:31.692Z,101355.09
2017-09-05T06:41:33.795Z,101350.12
2017-09-05T06:46:36.119Z,101344.38
2017-09-05T06:51:40.832Z,101346.31
2017-09-05T06:56:48.851Z,101343.09
2017-09-05T07:01:53.290Z,101346.06
2017-09-05T07:06:55.379Z,101343.46
2017-09-05T07:11:57.343Z,101341.22
2017-09-05T07:16:59.967Z,101338.31
2017-09-05T07:22:02.222Z,101334.92
2017-09-05T07:27:11.547Z,101339.18
2017-09-05T07:32:15.247Z,101333.14
2017-09-05T07:37:17.700Z,101328.45
2017-09-05T07:42:22.427Z,101330.12
2017-09-05T07:47:24.579Z,101328.52
2017-09-05T07:52:27.537Z,101319.03
2017-09-05T07:57:29.551Z,101314.84
2017-09-05T08:02:31.601Z,101316.09
2017-09-05T08:07:35.087Z,101332.45
2017-09-05T08:12:40.353Z,101337.20
2017-09-05T08:17:44.178Z,101335.83
2017-09-05T08:22:50.784Z,101331.05
2017-09-05T08:27:54.433Z,101331.36
2017-09-05T08:32:59.406Z,101325.03
2017-09-05T08:38:05.135Z,101321.66
2017-09-05T08:43:13.498Z,101322.22
2017-09-05T08:48:20.652Z,101319.16
2017-09-05T08:53:26.422Z,101329.91
2017-09-05T08:58:32.942Z,101330.47
2017-09-05T09:03:41.902Z,101338.06
2017-09-05T09:08:47.856Z,101333.86
2017-09-05T09:13:52.162Z,101319.46
2017-09-05T09:18:55.657Z,101317.84
2017-09-05T09:24:02.932Z,101319.50
2017-09-05T09:29:16.452Z,101316.81
2017-09-05T09:34:21.128Z,101316.91
2017-09-05T09:39:25.325Z,101320.79
2017-09-05T09:44:32.203Z,101326.77
2017-09-05T09:49:36.585Z,101318.91
2017-09-05T09:54:40.959Z,101325.71
2017-09-05T09:59:45.510Z,101320.57
2017-09-05T10:04:50.747Z,101326.22
2017-09-05T10:09:55.845Z,101321.73
2017-09-05T10:15:00.160Z,101317.87
2017-09-05T10:20:07.374Z,101317.15
2017-09-05T10:25:13.363Z,101316.48
2017-09-05T10:30:21.684Z,101312.97
2017-09-05T10:35:25.361Z,101315.17
2017-09-05T10:40:29.333Z,101304.17
2017-09-05T10:45:33.351Z,101293.30
2017-09-05T10:50:37.130Z,101295.86
2017-09-05T10:55:41.156Z,101286.09
2017-09-05T11:00:48.183Z,101291.50
2017-09-05T11:05:53.567Z,101283.22
2017-09-05T11:10:57.873Z,101285.29
2017-09-05T11:16:02.088Z,101283.41
2017-09-05T11:21:08.143Z,101286.25
2017-09-05T11:26:13.603Z,101282.52
2017-09-05T11:31:18.841Z,101278.88
2017-09-05T11:36:26.699Z,101279.51
2017-09-05T11:41:34.345Z,101276.28
2017-09-05T11:46:38.478Z,101271.77
2017-09-05T11:51:44.507Z,101266.36
2017-09-05T11:56:52.169Z,101267.90
2017-09-05T12:01:57.977Z,101266.50
2017-09-05T12:07:06.374Z,101266.14
2017-09-05T12:12:12.474Z,101263.76
2017-09-05T12:17:20.649Z,101261.70
2017-09-05T12:22:26.663Z,101249.58
2017-09-05T12:27:34.803Z,101246.70
2017-09-05T12:32:41.006Z,101239.67
2017-09-05T12:37:45.007Z,101240.88
2017-09-05T12:42:48.467Z,101229.65
2017-09-05T12:47:54.781Z,101217.94
2017-09-05T12:52:58.113Z,101228.26
2017-09-05T12:58:04.162Z,101226.78
2017-09-05T13:03:10.907Z,101226.39
2017-09-05T13:08:17.541Z,101221.38
2017-09-05T13:13:24.032Z,101215.34
2017-09-05T13:18:27.677Z,101204.58
2017-09-05T13:23:30.614Z,101205.39
2017-09-05T13:28:39.264Z,101205.48
2017-09-05T13:33:42.976Z,101201.66
2017-09-05T13:38:50.774Z,101189.32
2017-09-05T13:43:54.177Z,101190.40
2017-09-05T13:49:00.471Z,101192.93
2017-09-05T13:54:03.899Z,101175.98
2017-09-05T13:59:09.800Z,101173.32
2017-09-05T14:04:12.246Z,101167.11
2017-09-05T14:09:14.600Z,101169.06
2017-09-05T14:14:19.276Z,101170.82
2017-09-05T14:19:26.363Z,101162.23
2017-09-05T14:24:28.617Z,101163.83
2017-09-05T14:29:31.625Z,101155.51
2017-09-05T14:34:35.490Z,101155.05
2017-09-05T14:39:37.861Z,101147.62
2017-09-05T14:44:40.166Z,101148.44
2017-09-05T14:49:43.164Z,101141.06
2017-09-05T14:54:45.324Z,101138.98
2017-09-05T14:59:47.685Z,101133.37
2017-09-05T15:04:49.811Z,101135.96
2017-09-05T15:09:54.684Z,101140.83
2017-09-05T15:15:03.961Z,101140.41
2017-09-05T15:20:09.150Z,101135.22
2017-09-05T15:25:17.204Z,101135.97
2017-09-05T15:30:22.896Z,101131.73
2017-09-05T15:35:25.630Z,101133.16
2017-09-05T15:40:28.327Z,101128.28
2017-09-05T15:45:30.576Z,101127.42
2017-09-05T15:50:32.772Z,101130.61
2017-09-05T15:55:35.193Z,101124.59
2017-09-05T16:00:37.991Z,101124.59
2017-09-05T16:05:42.779Z,101128.53
2017-09-05T16:10:45.222Z,101128.36
2017-09-05T16:15:49.379Z,101119.59
2017-09-05T16:20:56.542Z,101117.97
2017-09-05T16:25:59.879Z,101118.36
2017-09-05T16:31:02.114Z,101108.63
2017-09-05T16:36:04.289Z,101098.09
2017-09-05T16:41:07.112Z,101088.48
2017-09-05T16:46:09.871Z,101089.61
2017-09-05T16:51:12.274Z,101074.64
2017-09-05T16:56:14.981Z,101071.42
2017-09-05T17:01:18.287Z,101072.10
2017-09-05T17:06:20.677Z,101068.13
2017-09-05T17:11:23.259Z,101052.64
2017-09-05T17:16:25.410Z,101051.20
2017-09-05T17:21:28.883Z,101037.64
2017-09-05T17:26:31.479Z,101057.53
2017-09-05T17:31:33.861Z,101061.45
2017-09-05T17:36:36.038Z,101060.78
2017-09-05T17:41:38.310Z,101047.66
2017-09-05T17:46:40.679Z,101052.56
2017-09-05T17:51:43.082Z,101053.11
2017-09-05T17:56:45.563Z,101053.70
2017-09-05T18:01:53.741Z,101062.61
2017-09-05T18:06:56.004Z,101071.23
2017-09-05T18:11:59.942Z,101064.70
2017-09-05T18:17:03.000Z,101063.05
2017-09-05T18:22:05.275Z,101065.89
2017-09-05T18:27:08.378Z,101069.48
2017-09-05T18:32:13.479Z,101072.90
2017-09-05T18:37:23.118Z,101072.39
2017-09-05T18:42:32.088Z,101070.66
2017-09-05T18:47:38.618Z,101059.80
2017-09-05T18:52:42.054Z,101068.59
2017-09-05T18:57:45.345Z,101064.59
2017-09-05T19:02:50.001Z,101067.16
2017-09-05T19:07:57.060Z,101061.52
2017-09-05T19:13:05.697Z,101062.28
2017-09-05T19:18:13.805Z,101055.39
2017-09-05T19:23:16.019Z,101053.30
2017-09-05T19:28:22.250Z,101054.39
2017-09-05T19:33:25.404Z,101045.56
2017-09-05T19:38:32.158Z,101042.86
2017-09-05T19:43:38.272Z,101049.59
2017-09-05T19:48:40.534Z,101049.38
2017-09-05T19:53:42.860Z,101047.61
2017-09-05T19:58:45.182Z,101042.31
2017-09-05T20:03:47.140Z,101040.67
2017-09-05T20:08:49.062Z,101036.87
2017-09-05T20:13:51.386Z,101038.73
2017-09-05T20:18:53.778Z,101028.91
2017-09-05T20:23:55.720Z,101043.52
2017-09-05T20:28:58.149Z,101044.63
2017-09-05T20:34:00.067Z,101049.11
2017-09-05T20:39:02.032Z,101052.27
2017-09-05T20:44:04.030Z,101048.46
2017-09-05T20:49:06.044Z,101046.45
2017-09-05T20:54:08.011Z,101048.94
2017-09-05T20:59:10.800Z,101037.47
2017-09-05T21:04:12.775Z,101028.00
2017-09-05T21:09:14.740Z,101024.20
2017-09-05T21:14:16.677Z,101026.61
2017-09-05T21:19:18.624Z,101001.02
2017-09-05T21:24:20.589Z,101000.39
2017-09-05T21:29:22.591Z,100984.76
2017-09-05T21:34:24.964Z,100973.34
2017-09-05T21:39:27.060Z,100975.43
2017-09-05T21:44:29.096Z,100970.88
2017-09-05T21:49:31.115Z,100966.24
2017-09-05T21:54:33.270Z,100961.17
2017-09-05T21:59:35.266Z,100947.43
2017-09-05T22:04:37.620Z,100942.27
2017-09-05T22:09:39.687Z,100942.36
2017-09-05T22:14:47.799Z,100945.52
2017-09-05T22:19:55.862Z,100948.22
2017-09-05T22:25:03.767Z,100943.92
2017-09-05T22:30:07.020Z,100945.81
2017-09-05T22:35:09.124Z,100942.13
2017-09-05T22:40:11.149Z,100942.34
2017-09-05T22:45:13.089Z,100928.66
2017-09-05T22:50:15.019Z,100931.50
2017-09-05T22:55:16.944Z,100932.97
2017-09-05T23:00:19.252Z,100929.44
2017-09-05T23:05:21.157Z,100927.33
2017-09-05T23:10:23.715Z,100921.27
2017-09-05T23:15:25.977Z,100916.72
2017-09-05T23:20:27.975Z,100913.88
2017-09-05T23:25:29.903Z,100903.80
2017-09-05T23:30:32.008Z,100897.00
2017-09-05T23:35:34.815Z,100896.41
2017-09-05T23:40:36.848Z,100894.59
2017-09-05T23:45:38.789Z,100879.50
2017-09-05T23:50:40.746Z,100867.11
2017-09-05T23:55:44.191Z,100866.33
